sensor_id;sensor_type;location;lat;lon;timestamp;temperature;humidity
10864;DHT22;5485;37.558;126.950;2023-05-07T00:01:49;16.30;1.00
10864;DHT22;5485;37.558;126.950;2023-05-07T00:04:16;16.40;1.00
10864;DHT22;5485;37.558;126.950;2023-05-07T00:06:46;16.60;1.00
10864;DHT22;5485;37.558;126.950;2023-05-07T00:09:13;16.70;1.00
10864;DHT22;5485;37.558;126.950;2023-05-07T00:11:40;17.00;1.00
10864;DHT22;5485;37.558;126.950;2023-05-07T00:14:07;17.10;1.00
10864;DHT22;5485;37.558;126.950;2023-05-07T00:16:34;17.10;1.00
10864;DHT22;5485;37.558;126.950;2023-05-07T00:19:01;17.20;1.00
10864;DHT22;5485;37.558;126.950;2023-05-07T00:21:27;17.20;1.00
10864;DHT22;5485;37.558;126.950;2023-05-07T00:23:57;17.30;1.00
10864;DHT22;5485;37.558;126.950;2023-05-07T00:26:24;17.10;1.00
10864;DHT22;5485;37.558;126.950;2023-05-07T00:28:51;17.10;1.00
10864;DHT22;5485;37.558;126.950;2023-05-07T00:31:18;17.00;1.00
10864;DHT22;5485;37.558;126.950;2023-05-07T00:33:45;16.70;1.00
10864;DHT22;5485;37.558;126.950;2023-05-07T00:36:11;16.70;1.00
10864;DHT22;5485;37.558;126.950;2023-05-07T00:38:38;16.70;1.00
10864;DHT22;5485;37.558;126.950;2023-05-07T00:41:07;16.80;1.00
10864;DHT22;5485;37.558;126.950;2023-05-07T00:43:34;16.70;1.00
10864;DHT22;5485;37.558;126.950;2023-05-07T00:46:03;16.70;1.00
10864;DHT22;5485;37.558;126.950;2023-05-07T00:48:30;16.60;1.00
10864;DHT22;5485;37.558;126.950;2023-05-07T00:50:57;16.60;1.00
10864;DHT22;5485;37.558;126.950;2023-05-07T00:53:24;16.70;1.00
10864;DHT22;5485;37.558;126.950;2023-05-07T00:55:51;16.60;1.00
10864;DHT22;5485;37.558;126.950;2023-05-07T00:58:19;16.80;1.00
10864;DHT22;5485;37.558;126.950;2023-05-07T01:00:46;16.80;1.00
10864;DHT22;5485;37.558;126.950;2023-05-07T01:03:13;17.00;1.00
10864;DHT22;5485;37.558;126.950;2023-05-07T01:05:41;17.10;1.00
10864;DHT22;5485;37.558;126.950;2023-05-07T01:08:10;17.30;1.00
10864;DHT22;5485;37.558;126.950;2023-05-07T01:10:38;17.30;1.00
10864;DHT22;5485;37.558;126.950;2023-05-07T01:13:12;17.30;1.00
10864;DHT22;5485;37.558;126.950;2023-05-07T01:15:41;17.40;1.00
10864;DHT22;5485;37.558;126.950;2023-05-07T01:18:09;17.40;1.00
10864;DHT22;5485;37.558;126.950;2023-05-07T01:20:36;17.80;1.00
10864;DHT22;5485;37.558;126.950;2023-05-07T01:23:03;18.10;1.00
10864;DHT22;5485;37.558;126.950;2023-05-07T01:25:31;18.50;1.00
10864;DHT22;5485;37.558;126.950;2023-05-07T01:27:58;18.50;1.00
10864;DHT22;5485;37.558;126.950;2023-05-07T01:30:26;18.50;1.00
10864;DHT22;5485;37.558;126.950;2023-05-07T01:33:08;18.40;1.00
10864;DHT22;5485;37.558;126.950;2023-05-07T01:35:40;18.40;1.00
10864;DHT22;5485;37.558;126.950;2023-05-07T01:38:08;18.10;1.00
10864;DHT22;5485;37.558;126.950;2023-05-07T01:40:36;18.30;1.00
10864;DHT22;5485;37.558;126.950;2023-05-07T01:43:06;18.40;1.00
10864;DHT22;5485;37.558;126.950;2023-05-07T01:45:34;18.10;1.00
10864;DHT22;5485;37.558;126.950;2023-05-07T01:48:02;18.00;1.00
10864;DHT22;5485;37.558;126.950;2023-05-07T01:50:31;18.00;1.00
10864;DHT22;5485;37.558;126.950;2023-05-07T01:52:58;18.00;1.00
10864;DHT22;5485;37.558;126.950;2023-05-07T01:55:27;18.10;1.00
10864;DHT22;5485;37.558;126.950;2023-05-07T01:57:57;18.30;1.00
10864;DHT22;5485;37.558;126.950;2023-05-07T02:00:24;18.30;1.00
10864;DHT22;5485;37.558;126.950;2023-05-07T02:02:51;18.40;1.00
10864;DHT22;5485;37.558;126.950;2023-05-07T02:05:19;18.40;1.00
10864;DHT22;5485;37.558;126.950;2023-05-07T02:07:45;18.30;1.00
10864;DHT22;5485;37.558;126.950;2023-05-07T02:10:12;18.40;1.00
10864;DHT22;5485;37.558;126.950;2023-05-07T02:12:41;18.50;1.00
10864;DHT22;5485;37.558;126.950;2023-05-07T02:15:09;18.60;1.00
10864;DHT22;5485;37.558;126.950;2023-05-07T02:17:57;18.80;1.00
10864;DHT22;5485;37.558;126.950;2023-05-07T02:20:26;18.90;1.00
10864;DHT22;5485;37.558;126.950;2023-05-07T02:22:52;18.80;1.00
10864;DHT22;5485;37.558;126.950;2023-05-07T02:25:19;18.60;1.00
10864;DHT22;5485;37.558;126.950;2023-05-07T02:27:46;18.90;1.00
10864;DHT22;5485;37.558;126.950;2023-05-07T02:30:14;19.00;1.00
10864;DHT22;5485;37.558;126.950;2023-05-07T02:32:41;18.80;1.00
10864;DHT22;5485;37.558;126.950;2023-05-07T02:35:08;19.00;1.00
10864;DHT22;5485;37.558;126.950;2023-05-07T02:37:35;18.80;1.00
10864;DHT22;5485;37.558;126.950;2023-05-07T02:40:02;18.90;1.00
10864;DHT22;5485;37.558;126.950;2023-05-07T02:42:30;19.00;1.00
10864;DHT22;5485;37.558;126.950;2023-05-07T02:44:57;19.00;1.00
10864;DHT22;5485;37.558;126.950;2023-05-07T02:47:24;19.10;1.00
10864;DHT22;5485;37.558;126.950;2023-05-07T02:49:54;19.10;1.00
10864;DHT22;5485;37.558;126.950;2023-05-07T02:52:21;19.10;1.00
10864;DHT22;5485;37.558;126.950;2023-05-07T02:54:49;18.90;1.00
10864;DHT22;5485;37.558;126.950;2023-05-07T02:57:16;18.70;1.00
10864;DHT22;5485;37.558;126.950;2023-05-07T02:59:46;18.70;1.00
10864;DHT22;5485;37.558;126.950;2023-05-07T03:02:14;18.80;1.00
10864;DHT22;5485;37.558;126.950;2023-05-07T03:04:41;18.50;1.00
10864;DHT22;5485;37.558;126.950;2023-05-07T03:07:08;18.60;1.00
10864;DHT22;5485;37.558;126.950;2023-05-07T03:09:34;18.60;1.00
10864;DHT22;5485;37.558;126.950;2023-05-07T03:12:04;18.60;1.00
10864;DHT22;5485;37.558;126.950;2023-05-07T03:14:32;18.60;1.00
10864;DHT22;5485;37.558;126.950;2023-05-07T03:16:59;18.50;1.00
10864;DHT22;5485;37.558;126.950;2023-05-07T03:19:26;18.80;1.00
10864;DHT22;5485;37.558;126.950;2023-05-07T03:21:53;18.90;1.00
10864;DHT22;5485;37.558;126.950;2023-05-07T03:24:23;19.30;1.00
10864;DHT22;5485;37.558;126.950;2023-05-07T03:26:49;19.50;1.00
10864;DHT22;5485;37.558;126.950;2023-05-07T03:29:16;19.50;1.00
10864;DHT22;5485;37.558;126.950;2023-05-07T03:31:43;19.50;1.00
10864;DHT22;5485;37.558;126.950;2023-05-07T03:34:11;19.60;1.00
10864;DHT22;5485;37.558;126.950;2023-05-07T03:36:38;19.70;1.00
10864;DHT22;5485;37.558;126.950;2023-05-07T03:39:05;19.90;1.00
10864;DHT22;5485;37.558;126.950;2023-05-07T03:41:35;19.90;1.00
10864;DHT22;5485;37.558;126.950;2023-05-07T03:44:03;20.00;1.00
10864;DHT22;5485;37.558;126.950;2023-05-07T03:46:32;20.10;1.00
10864;DHT22;5485;37.558;126.950;2023-05-07T03:48:59;20.10;1.00
10864;DHT22;5485;37.558;126.950;2023-05-07T03:51:26;20.00;1.00
10864;DHT22;5485;37.558;126.950;2023-05-07T03:53:53;19.90;1.00
10864;DHT22;5485;37.558;126.950;2023-05-07T03:56:20;19.90;1.00
10864;DHT22;5485;37.558;126.950;2023-05-07T03:58:48;19.90;1.00
10864;DHT22;5485;37.558;126.950;2023-05-07T04:01:15;19.90;1.00
10864;DHT22;5485;37.558;126.950;2023-05-07T04:03:42;19.90;1.00
10864;DHT22;5485;37.558;126.950;2023-05-07T04:06:08;19.80;1.00
10864;DHT22;5485;37.558;126.950;2023-05-07T04:08:35;19.50;1.00
10864;DHT22;5485;37.558;126.950;2023-05-07T04:11:02;19.40;1.00
10864;DHT22;5485;37.558;126.950;2023-05-07T04:13:31;19.50;1.00
10864;DHT22;5485;37.558;126.950;2023-05-07T04:16:04;19.60;1.00
10864;DHT22;5485;37.558;126.950;2023-05-07T04:18:34;19.80;1.00
10864;DHT22;5485;37.558;126.950;2023-05-07T04:21:01;19.80;1.00
10864;DHT22;5485;37.558;126.950;2023-05-07T04:23:28;19.90;1.00
10864;DHT22;5485;37.558;126.950;2023-05-07T04:25:55;19.80;1.00
10864;DHT22;5485;37.558;126.950;2023-05-07T04:28:22;19.90;1.00
10864;DHT22;5485;37.558;126.950;2023-05-07T04:30:49;19.90;1.00
10864;DHT22;5485;37.558;126.950;2023-05-07T04:33:16;19.70;1.00
10864;DHT22;5485;37.558;126.950;2023-05-07T04:35:46;19.50;1.00
10864;DHT22;5485;37.558;126.950;2023-05-07T04:38:12;19.50;1.00
10864;DHT22;5485;37.558;126.950;2023-05-07T04:40:39;19.60;1.00
10864;DHT22;5485;37.558;126.950;2023-05-07T04:43:07;19.40;1.00
10864;DHT22;5485;37.558;126.950;2023-05-07T04:45:36;19.20;1.00
10864;DHT22;5485;37.558;126.950;2023-05-07T04:48:03;19.10;1.00
10864;DHT22;5485;37.558;126.950;2023-05-07T04:50:30;19.10;1.00
10864;DHT22;5485;37.558;126.950;2023-05-07T04:52:57;19.20;1.00
10864;DHT22;5485;37.558;126.950;2023-05-07T04:55:24;19.30;1.00
10864;DHT22;5485;37.558;126.950;2023-05-07T04:57:52;19.20;1.00
10864;DHT22;5485;37.558;126.950;2023-05-07T05:00:19;19.30;1.00
10864;DHT22;5485;37.558;126.950;2023-05-07T05:02:52;19.30;1.00
10864;DHT22;5485;37.558;126.950;2023-05-07T05:05:19;19.20;1.00
10864;DHT22;5485;37.558;126.950;2023-05-07T05:07:46;19.10;1.00
10864;DHT22;5485;37.558;126.950;2023-05-07T05:10:12;19.20;1.00
10864;DHT22;5485;37.558;126.950;2023-05-07T05:12:42;19.10;1.00
10864;DHT22;5485;37.558;126.950;2023-05-07T05:15:12;19.10;1.00
10864;DHT22;5485;37.558;126.950;2023-05-07T05:17:39;19.00;1.00
10864;DHT22;5485;37.558;126.950;2023-05-07T05:20:06;19.00;1.00
10864;DHT22;5485;37.558;126.950;2023-05-07T05:22:33;19.00;1.00
10864;DHT22;5485;37.558;126.950;2023-05-07T05:25:00;18.90;1.00
10864;DHT22;5485;37.558;126.950;2023-05-07T05:27:27;18.90;1.00
10864;DHT22;5485;37.558;126.950;2023-05-07T05:29:57;19.10;1.00
10864;DHT22;5485;37.558;126.950;2023-05-07T05:32:24;19.20;1.00
10864;DHT22;5485;37.558;126.950;2023-05-07T05:34:51;19.30;1.00
10864;DHT22;5485;37.558;126.950;2023-05-07T05:37:18;19.40;1.00
10864;DHT22;5485;37.558;126.950;2023-05-07T05:39:45;19.50;1.00
10864;DHT22;5485;37.558;126.950;2023-05-07T05:42:13;19.80;1.00
10864;DHT22;5485;37.558;126.950;2023-05-07T05:44:42;19.60;1.00
10864;DHT22;5485;37.558;126.950;2023-05-07T05:47:09;19.60;1.00
10864;DHT22;5485;37.558;126.950;2023-05-07T05:49:36;19.60;1.00
10864;DHT22;5485;37.558;126.950;2023-05-07T05:52:06;19.70;1.00
10864;DHT22;5485;37.558;126.950;2023-05-07T05:54:32;19.40;1.00
10864;DHT22;5485;37.558;126.950;2023-05-07T05:57:01;19.30;1.00
10864;DHT22;5485;37.558;126.950;2023-05-07T05:59:32;19.50;1.00
10864;DHT22;5485;37.558;126.950;2023-05-07T06:01:59;19.60;1.00
10864;DHT22;5485;37.558;126.950;2023-05-07T06:04:26;19.70;1.00
10864;DHT22;5485;37.558;126.950;2023-05-07T06:06:54;19.90;1.00
10864;DHT22;5485;37.558;126.950;2023-05-07T06:09:24;19.90;1.00
10864;DHT22;5485;37.558;126.950;2023-05-07T06:11:51;20.30;1.00
10864;DHT22;5485;37.558;126.950;2023-05-07T06:14:18;20.40;1.00
10864;DHT22;5485;37.558;126.950;2023-05-07T06:16:45;20.30;1.00
10864;DHT22;5485;37.558;126.950;2023-05-07T06:19:12;20.40;1.00
10864;DHT22;5485;37.558;126.950;2023-05-07T06:21:39;20.30;1.00
10864;DHT22;5485;37.558;126.950;2023-05-07T06:24:06;20.30;1.00
10864;DHT22;5485;37.558;126.950;2023-05-07T06:26:33;20.30;1.00
10864;DHT22;5485;37.558;126.950;2023-05-07T06:29:00;20.20;1.00
10864;DHT22;5485;37.558;126.950;2023-05-07T06:31:30;20.20;1.00
10864;DHT22;5485;37.558;126.950;2023-05-07T06:34:00;20.10;1.00
10864;DHT22;5485;37.558;126.950;2023-05-07T06:36:28;20.10;1.00
10864;DHT22;5485;37.558;126.950;2023-05-07T06:38:55;20.20;1.00
10864;DHT22;5485;37.558;126.950;2023-05-07T06:41:22;20.10;1.00
10864;DHT22;5485;37.558;126.950;2023-05-07T06:43:49;19.90;1.00
10864;DHT22;5485;37.558;126.950;2023-05-07T06:46:16;19.80;1.00
10864;DHT22;5485;37.558;126.950;2023-05-07T06:48:43;19.90;1.00
10864;DHT22;5485;37.558;126.950;2023-05-07T06:51:10;20.00;1.00
10864;DHT22;5485;37.558;126.950;2023-05-07T06:53:37;19.80;1.00
10864;DHT22;5485;37.558;126.950;2023-05-07T06:56:07;19.50;1.00
10864;DHT22;5485;37.558;126.950;2023-05-07T06:58:34;19.40;1.00
10864;DHT22;5485;37.558;126.950;2023-05-07T07:01:01;19.30;1.00
10864;DHT22;5485;37.558;126.950;2023-05-07T07:03:27;19.10;1.00
10864;DHT22;5485;37.558;126.950;2023-05-07T07:05:55;19.30;1.00
10864;DHT22;5485;37.558;126.950;2023-05-07T07:08:22;19.40;1.00
10864;DHT22;5485;37.558;126.950;2023-05-07T07:10:51;19.60;1.00
10864;DHT22;5485;37.558;126.950;2023-05-07T07:13:18;19.80;1.00
10864;DHT22;5485;37.558;126.950;2023-05-07T07:15:45;20.00;1.00
10864;DHT22;5485;37.558;126.950;2023-05-07T07:18:12;20.00;1.00
10864;DHT22;5485;37.558;126.950;2023-05-07T07:20:39;20.10;1.00
10864;DHT22;5485;37.558;126.950;2023-05-07T07:23:06;20.00;1.00
10864;DHT22;5485;37.558;126.950;2023-05-07T07:25:33;20.10;1.00
10864;DHT22;5485;37.558;126.950;2023-05-07T07:28:00;20.10;1.00
10864;DHT22;5485;37.558;126.950;2023-05-07T07:30:27;20.20;1.00
10864;DHT22;5485;37.558;126.950;2023-05-07T07:32:54;20.30;1.00
10864;DHT22;5485;37.558;126.950;2023-05-07T07:35:26;20.30;1.00
10864;DHT22;5485;37.558;126.950;2023-05-07T07:37:55;20.10;1.00
10864;DHT22;5485;37.558;126.950;2023-05-07T07:40:23;20.00;1.00
10864;DHT22;5485;37.558;126.950;2023-05-07T07:42:50;19.80;1.00
10864;DHT22;5485;37.558;126.950;2023-05-07T07:45:18;19.70;1.00
10864;DHT22;5485;37.558;126.950;2023-05-07T07:47:45;19.50;1.00
10864;DHT22;5485;37.558;126.950;2023-05-07T07:50:12;19.70;1.00
10864;DHT22;5485;37.558;126.950;2023-05-07T07:52:42;19.70;1.00
10864;DHT22;5485;37.558;126.950;2023-05-07T07:55:09;19.70;1.00
10864;DHT22;5485;37.558;126.950;2023-05-07T07:57:36;19.70;1.00
10864;DHT22;5485;37.558;126.950;2023-05-07T08:00:04;19.70;1.00
10864;DHT22;5485;37.558;126.950;2023-05-07T08:02:36;19.80;1.00
10864;DHT22;5485;37.558;126.950;2023-05-07T08:05:03;19.80;1.00
10864;DHT22;5485;37.558;126.950;2023-05-07T08:07:31;19.50;1.00
10864;DHT22;5485;37.558;126.950;2023-05-07T08:09:58;19.40;1.00
10864;DHT22;5485;37.558;126.950;2023-05-07T08:12:25;19.30;1.00
10864;DHT22;5485;37.558;126.950;2023-05-07T08:14:53;19.30;1.00
10864;DHT22;5485;37.558;126.950;2023-05-07T08:17:21;19.40;1.00
10864;DHT22;5485;37.558;126.950;2023-05-07T08:19:48;19.40;1.00
10864;DHT22;5485;37.558;126.950;2023-05-07T08:22:15;19.40;1.00
10864;DHT22;5485;37.558;126.950;2023-05-07T08:24:44;19.50;1.00
10864;DHT22;5485;37.558;126.950;2023-05-07T08:27:11;19.50;1.00
10864;DHT22;5485;37.558;126.950;2023-05-07T08:29:38;19.50;1.00
10864;DHT22;5485;37.558;126.950;2023-05-07T08:32:05;19.60;1.00
10864;DHT22;5485;37.558;126.950;2023-05-07T08:34:32;19.50;1.00
10864;DHT22;5485;37.558;126.950;2023-05-07T08:36:59;19.20;1.00
10864;DHT22;5485;37.558;126.950;2023-05-07T08:39:28;19.00;1.00
10864;DHT22;5485;37.558;126.950;2023-05-07T08:41:56;18.90;1.00
10864;DHT22;5485;37.558;126.950;2023-05-07T08:44:27;18.80;1.00
10864;DHT22;5485;37.558;126.950;2023-05-07T08:46:56;18.60;1.00
10864;DHT22;5485;37.558;126.950;2023-05-07T08:49:23;18.50;1.00
10864;DHT22;5485;37.558;126.950;2023-05-07T08:51:50;18.40;1.00
10864;DHT22;5485;37.558;126.950;2023-05-07T08:54:17;18.40;1.00
10864;DHT22;5485;37.558;126.950;2023-05-07T08:56:45;18.40;1.00
10864;DHT22;5485;37.558;126.950;2023-05-07T08:59:13;18.40;1.00
10864;DHT22;5485;37.558;126.950;2023-05-07T09:01:40;18.40;1.00
10864;DHT22;5485;37.558;126.950;2023-05-07T09:04:07;18.50;1.00
10864;DHT22;5485;37.558;126.950;2023-05-07T09:06:35;18.60;1.00
10864;DHT22;5485;37.558;126.950;2023-05-07T09:09:05;18.60;1.00
10864;DHT22;5485;37.558;126.950;2023-05-07T09:11:32;18.60;1.00
10864;DHT22;5485;37.558;126.950;2023-05-07T09:13:59;18.60;1.00
10864;DHT22;5485;37.558;126.950;2023-05-07T09:16:29;18.60;1.00
10864;DHT22;5485;37.558;126.950;2023-05-07T09:18:59;18.60;1.00
10864;DHT22;5485;37.558;126.950;2023-05-07T09:21:48;18.60;1.00
10864;DHT22;5485;37.558;126.950;2023-05-07T09:24:23;18.60;1.00
10864;DHT22;5485;37.558;126.950;2023-05-07T09:26:50;18.60;1.00
10864;DHT22;5485;37.558;126.950;2023-05-07T09:29:17;18.70;1.00
10864;DHT22;5485;37.558;126.950;2023-05-07T09:31:43;18.60;1.00
10864;DHT22;5485;37.558;126.950;2023-05-07T09:34:10;18.50;1.00
10864;DHT22;5485;37.558;126.950;2023-05-07T09:36:37;18.50;1.00
10864;DHT22;5485;37.558;126.950;2023-05-07T09:39:04;18.40;1.00
10864;DHT22;5485;37.558;126.950;2023-05-07T09:41:32;18.40;1.00
10864;DHT22;5485;37.558;126.950;2023-05-07T09:43:59;18.40;1.00
10864;DHT22;5485;37.558;126.950;2023-05-07T09:46:31;18.40;1.00
10864;DHT22;5485;37.558;126.950;2023-05-07T09:49:02;18.30;1.00
10864;DHT22;5485;37.558;126.950;2023-05-07T09:51:39;18.20;1.00
10864;DHT22;5485;37.558;126.950;2023-05-07T09:54:08;18.10;1.00
10864;DHT22;5485;37.558;126.950;2023-05-07T09:56:36;18.00;1.00
10864;DHT22;5485;37.558;126.950;2023-05-07T09:59:04;18.00;1.00
10864;DHT22;5485;37.558;126.950;2023-05-07T10:01:32;17.90;1.00
10864;DHT22;5485;37.558;126.950;2023-05-07T10:04:03;17.80;1.00
10864;DHT22;5485;37.558;126.950;2023-05-07T10:06:36;17.60;1.00
10864;DHT22;5485;37.558;126.950;2023-05-07T10:09:06;17.50;1.00
10864;DHT22;5485;37.558;126.950;2023-05-07T10:11:36;17.30;1.00
10864;DHT22;5485;37.558;126.950;2023-05-07T10:14:06;17.20;1.00
10864;DHT22;5485;37.558;126.950;2023-05-07T10:16:35;17.10;1.00
10864;DHT22;5485;37.558;126.950;2023-05-07T10:19:09;17.00;1.00
10864;DHT22;5485;37.558;126.950;2023-05-07T10:21:40;16.90;1.00
10864;DHT22;5485;37.558;126.950;2023-05-07T10:27:10;16.60;1.00
10864;DHT22;5485;37.558;126.950;2023-05-07T10:30:15;16.50;1.00
10864;DHT22;5485;37.558;126.950;2023-05-07T10:32:45;16.40;1.00
10864;DHT22;5485;37.558;126.950;2023-05-07T10:35:38;16.30;1.00
10864;DHT22;5485;37.558;126.950;2023-05-07T10:38:08;16.30;1.00
10864;DHT22;5485;37.558;126.950;2023-05-07T10:40:37;16.10;1.00
10864;DHT22;5485;37.558;126.950;2023-05-07T10:43:05;16.00;1.00
10864;DHT22;5485;37.558;126.950;2023-05-07T10:45:32;15.90;1.00
10864;DHT22;5485;37.558;126.950;2023-05-07T10:48:15;15.90;1.00
10864;DHT22;5485;37.558;126.950;2023-05-07T10:50:45;15.90;1.00
10864;DHT22;5485;37.558;126.950;2023-05-07T10:53:20;15.80;1.00
10864;DHT22;5485;37.558;126.950;2023-05-07T10:58:46;15.80;1.00
10864;DHT22;5485;37.558;126.950;2023-05-07T11:01:13;15.70;1.00
10864;DHT22;5485;37.558;126.950;2023-05-07T11:04:16;15.70;1.00
10864;DHT22;5485;37.558;126.950;2023-05-07T11:15:09;15.40;1.00
10864;DHT22;5485;37.558;126.950;2023-05-07T11:18:01;15.40;1.00
10864;DHT22;5485;37.558;126.950;2023-05-07T11:20:52;15.40;1.00
10864;DHT22;5485;37.558;126.950;2023-05-07T11:26:06;15.20;1.00
10864;DHT22;5485;37.558;126.950;2023-05-07T11:28:43;15.20;1.00
10864;DHT22;5485;37.558;126.950;2023-05-07T11:31:10;15.10;1.00
10864;DHT22;5485;37.558;126.950;2023-05-07T11:33:38;15.00;1.00
10864;DHT22;5485;37.558;126.950;2023-05-07T11:36:07;14.90;1.00
10864;DHT22;5485;37.558;126.950;2023-05-07T11:38:38;14.90;1.00
10864;DHT22;5485;37.558;126.950;2023-05-07T11:41:05;14.80;1.00
10864;DHT22;5485;37.558;126.950;2023-05-07T11:43:33;14.80;1.00
10864;DHT22;5485;37.558;126.950;2023-05-07T11:46:11;14.80;1.00
10864;DHT22;5485;37.558;126.950;2023-05-07T11:48:40;14.80;1.00
10864;DHT22;5485;37.558;126.950;2023-05-07T11:51:07;14.80;1.00
10864;DHT22;5485;37.558;126.950;2023-05-07T11:53:41;14.80;1.00
10864;DHT22;5485;37.558;126.950;2023-05-07T11:56:09;14.80;1.00
10864;DHT22;5485;37.558;126.950;2023-05-07T11:58:36;14.80;1.00
10864;DHT22;5485;37.558;126.950;2023-05-07T12:01:11;14.70;1.00
10864;DHT22;5485;37.558;126.950;2023-05-07T12:03:40;14.70;1.00
10864;DHT22;5485;37.558;126.950;2023-05-07T12:06:11;14.60;1.00
10864;DHT22;5485;37.558;126.950;2023-05-07T12:08:40;14.60;1.00
10864;DHT22;5485;37.558;126.950;2023-05-07T12:11:13;14.60;1.00
10864;DHT22;5485;37.558;126.950;2023-05-07T12:13:41;14.50;1.00
10864;DHT22;5485;37.558;126.950;2023-05-07T12:16:09;14.50;1.00
10864;DHT22;5485;37.558;126.950;2023-05-07T12:18:39;14.40;1.00
10864;DHT22;5485;37.558;126.950;2023-05-07T12:21:07;14.30;1.00
10864;DHT22;5485;37.558;126.950;2023-05-07T12:23:35;14.30;1.00
10864;DHT22;5485;37.558;126.950;2023-05-07T12:26:03;14.30;1.00
10864;DHT22;5485;37.558;126.950;2023-05-07T12:28:30;14.30;1.00
10864;DHT22;5485;37.558;126.950;2023-05-07T12:30:58;14.20;1.00
10864;DHT22;5485;37.558;126.950;2023-05-07T12:33:28;14.20;1.00
10864;DHT22;5485;37.558;126.950;2023-05-07T12:35:57;14.10;1.00
10864;DHT22;5485;37.558;126.950;2023-05-07T12:38:24;14.10;1.00
10864;DHT22;5485;37.558;126.950;2023-05-07T12:40:54;14.20;1.00
10864;DHT22;5485;37.558;126.950;2023-05-07T12:43:28;14.10;1.00
10864;DHT22;5485;37.558;126.950;2023-05-07T12:46:04;14.10;1.00
10864;DHT22;5485;37.558;126.950;2023-05-07T12:48:32;14.00;1.00
10864;DHT22;5485;37.558;126.950;2023-05-07T12:51:08;14.00;1.00
10864;DHT22;5485;37.558;126.950;2023-05-07T12:53:41;14.00;1.00
10864;DHT22;5485;37.558;126.950;2023-05-07T12:56:20;14.00;1.00
10864;DHT22;5485;37.558;126.950;2023-05-07T12:58:49;13.90;1.00
10864;DHT22;5485;37.558;126.950;2023-05-07T13:01:16;13.90;1.00
10864;DHT22;5485;37.558;126.950;2023-05-07T13:03:48;13.70;1.00
10864;DHT22;5485;37.558;126.950;2023-05-07T13:06:16;13.70;1.00
10864;DHT22;5485;37.558;126.950;2023-05-07T13:08:43;13.60;1.00
10864;DHT22;5485;37.558;126.950;2023-05-07T13:11:11;13.50;1.00
10864;DHT22;5485;37.558;126.950;2023-05-07T13:13:39;13.50;1.00
10864;DHT22;5485;37.558;126.950;2023-05-07T13:16:08;13.40;1.00
10864;DHT22;5485;37.558;126.950;2023-05-07T13:18:37;13.30;1.00
10864;DHT22;5485;37.558;126.950;2023-05-07T13:21:04;13.30;1.00
10864;DHT22;5485;37.558;126.950;2023-05-07T13:23:31;13.30;1.00
10864;DHT22;5485;37.558;126.950;2023-05-07T13:25:58;13.30;1.00
10864;DHT22;5485;37.558;126.950;2023-05-07T13:28:26;13.20;1.00
10864;DHT22;5485;37.558;126.950;2023-05-07T13:30:54;13.20;1.00
10864;DHT22;5485;37.558;126.950;2023-05-07T13:33:21;13.20;1.00
10864;DHT22;5485;37.558;126.950;2023-05-07T13:35:50;13.20;1.00
10864;DHT22;5485;37.558;126.950;2023-05-07T13:38:17;13.20;1.00
10864;DHT22;5485;37.558;126.950;2023-05-07T13:40:46;13.10;1.00
10864;DHT22;5485;37.558;126.950;2023-05-07T13:43:13;13.10;1.00
10864;DHT22;5485;37.558;126.950;2023-05-07T13:45:40;13.00;1.00
10864;DHT22;5485;37.558;126.950;2023-05-07T13:48:07;13.00;1.00
10864;DHT22;5485;37.558;126.950;2023-05-07T13:50:34;12.90;1.00
10864;DHT22;5485;37.558;126.950;2023-05-07T13:53:01;12.90;1.00
10864;DHT22;5485;37.558;126.950;2023-05-07T13:55:29;12.80;1.00
10864;DHT22;5485;37.558;126.950;2023-05-07T13:57:58;12.80;1.00
10864;DHT22;5485;37.558;126.950;2023-05-07T14:00:25;12.90;1.00
10864;DHT22;5485;37.558;126.950;2023-05-07T14:02:53;12.80;1.00
10864;DHT22;5485;37.558;126.950;2023-05-07T14:05:20;12.80;1.00
10864;DHT22;5485;37.558;126.950;2023-05-07T14:07:50;12.80;1.00
10864;DHT22;5485;37.558;126.950;2023-05-07T14:10:18;12.80;1.00
10864;DHT22;5485;37.558;126.950;2023-05-07T14:12:46;12.80;1.00
10864;DHT22;5485;37.558;126.950;2023-05-07T14:15:13;12.80;1.00
10864;DHT22;5485;37.558;126.950;2023-05-07T14:17:40;12.80;1.00
10864;DHT22;5485;37.558;126.950;2023-05-07T14:20:07;12.80;1.00
10864;DHT22;5485;37.558;126.950;2023-05-07T14:22:34;12.80;1.00
10864;DHT22;5485;37.558;126.950;2023-05-07T14:25:01;12.70;1.00
10864;DHT22;5485;37.558;126.950;2023-05-07T14:27:28;12.60;1.00
10864;DHT22;5485;37.558;126.950;2023-05-07T14:29:55;12.50;1.00
10864;DHT22;5485;37.558;126.950;2023-05-07T14:32:22;12.50;1.00
10864;DHT22;5485;37.558;126.950;2023-05-07T14:34:49;12.50;1.00
10864;DHT22;5485;37.558;126.950;2023-05-07T14:37:16;12.40;1.00
10864;DHT22;5485;37.558;126.950;2023-05-07T14:39:46;12.30;1.00
10864;DHT22;5485;37.558;126.950;2023-05-07T14:42:13;12.20;1.00
10864;DHT22;5485;37.558;126.950;2023-05-07T14:44:41;12.20;1.00
10864;DHT22;5485;37.558;126.950;2023-05-07T14:47:08;12.10;1.00
10864;DHT22;5485;37.558;126.950;2023-05-07T14:49:35;12.10;1.00
10864;DHT22;5485;37.558;126.950;2023-05-07T14:52:02;12.10;1.00
10864;DHT22;5485;37.558;126.950;2023-05-07T14:57:05;12.10;1.00
10864;DHT22;5485;37.558;126.950;2023-05-07T14:59:32;12.10;1.00
10864;DHT22;5485;37.558;126.950;2023-05-07T15:01:59;12.00;1.00
10864;DHT22;5485;37.558;126.950;2023-05-07T15:04:28;12.00;1.00
10864;DHT22;5485;37.558;126.950;2023-05-07T15:06:57;12.00;1.00
10864;DHT22;5485;37.558;126.950;2023-05-07T15:09:24;12.00;1.00
10864;DHT22;5485;37.558;126.950;2023-05-07T15:11:51;12.00;1.00
10864;DHT22;5485;37.558;126.950;2023-05-07T15:14:18;12.00;1.00
10864;DHT22;5485;37.558;126.950;2023-05-07T15:16:46;12.00;1.00
10864;DHT22;5485;37.558;126.950;2023-05-07T15:19:12;12.00;1.00
10864;DHT22;5485;37.558;126.950;2023-05-07T15:21:41;12.00;1.00
10864;DHT22;5485;37.558;126.950;2023-05-07T15:24:08;11.90;1.00
10864;DHT22;5485;37.558;126.950;2023-05-07T15:26:35;11.90;1.00
10864;DHT22;5485;37.558;126.950;2023-05-07T15:29:02;12.00;1.00
10864;DHT22;5485;37.558;126.950;2023-05-07T15:31:34;12.00;1.00
10864;DHT22;5485;37.558;126.950;2023-05-07T15:34:00;12.10;1.00
10864;DHT22;5485;37.558;126.950;2023-05-07T15:36:27;12.10;1.00
10864;DHT22;5485;37.558;126.950;2023-05-07T15:38:54;12.10;1.00
10864;DHT22;5485;37.558;126.950;2023-05-07T15:41:21;12.10;1.00
10864;DHT22;5485;37.558;126.950;2023-05-07T15:43:51;12.00;1.00
10864;DHT22;5485;37.558;126.950;2023-05-07T15:46:20;12.00;1.00
10864;DHT22;5485;37.558;126.950;2023-05-07T15:48:47;12.00;1.00
10864;DHT22;5485;37.558;126.950;2023-05-07T15:51:15;12.00;1.00
10864;DHT22;5485;37.558;126.950;2023-05-07T15:53:43;11.90;1.00
10864;DHT22;5485;37.558;126.950;2023-05-07T15:56:10;11.90;1.00
10864;DHT22;5485;37.558;126.950;2023-05-07T15:58:37;12.00;1.00